createdAt,value
2019-01-27T00:00:47.483Z,0.00
2019-01-27T00:01:47.616Z,0.00
2019-01-27T00:02:47.738Z,0.00
2019-01-27T00:03:47.865Z,0.00
2019-01-27T00:04:47.996Z,0.00
2019-01-27T00:05:48.133Z,0.00
2019-01-27T00:06:48.252Z,0.00
2019-01-27T00:07:48.382Z,0.00
2019-01-27T00:08:48.517Z,0.00
2019-01-27T00:09:48.639Z,0.00
2019-01-27T00:10:48.768Z,0.00
2019-01-27T00:11:48.897Z,0.00
2019-01-27T00:12:49.037Z,0.00
2019-01-27T00:13:49.170Z,0.00
2019-01-27T00:14:49.297Z,0.00
2019-01-27T00:15:49.428Z,0.00
2019-01-27T00:16:49.559Z,0.00
2019-01-27T00:17:49.681Z,0.00
2019-01-27T00:18:49.807Z,0.00
2019-01-27T00:19:49.988Z,0.00
2019-01-27T00:20:50.119Z,0.00
2019-01-27T00:21:50.243Z,0.00
2019-01-27T00:22:50.371Z,0.00
2019-01-27T00:23:50.485Z,0.00
2019-01-27T00:24:50.626Z,0.00
2019-01-27T00:25:50.750Z,0.00
2019-01-27T00:26:50.885Z,0.00
2019-01-27T00:27:51.005Z,0.00
2019-01-27T00:28:51.143Z,0.00
2019-01-27T00:29:51.265Z,0.00
2019-01-27T00:30:51.400Z,0.00
2019-01-27T00:31:51.531Z,0.00
2019-01-27T00:32:51.644Z,0.00
2019-01-27T00:33:51.812Z,0.00
2019-01-27T00:34:51.936Z,0.00
2019-01-27T00:35:52.060Z,0.00
2019-01-27T00:36:52.220Z,0.00
2019-01-27T00:37:52.345Z,0.00
2019-01-27T00:38:52.470Z,0.00
2019-01-27T00:39:52.601Z,0.00
2019-01-27T00:40:52.737Z,0.00
2019-01-27T00:41:52.855Z,0.00
2019-01-27T00:42:52.975Z,0.00
2019-01-27T00:43:53.127Z,0.00
2019-01-27T00:44:53.252Z,0.00
2019-01-27T00:45:53.392Z,0.00
2019-01-27T00:46:53.516Z,0.00
2019-01-27T00:47:53.649Z,0.00
2019-01-27T00:48:53.771Z,0.00
2019-01-27T00:49:53.902Z,0.00
2019-01-27T00:50:54.033Z,0.00
2019-01-27T00:51:54.158Z,0.00
2019-01-27T00:52:54.282Z,0.00
2019-01-27T00:53:54.413Z,0.00
2019-01-27T00:54:54.538Z,0.00
2019-01-27T00:55:54.664Z,0.00
2019-01-27T00:56:54.786Z,0.00
2019-01-27T00:57:54.922Z,0.00
2019-01-27T00:58:55.039Z,0.00
2019-01-27T00:59:55.168Z,0.00
2019-01-27T01:00:55.294Z,0.00
2019-01-27T01:01:55.477Z,0.00
2019-01-27T01:02:55.550Z,0.00
2019-01-27T01:03:55.679Z,0.00
2019-01-27T01:04:55.795Z,0.00
2019-01-27T01:07:28.467Z,0.00
2019-01-27T01:08:27.886Z,0.00
2019-01-27T01:09:28.015Z,0.00
2019-01-27T01:10:28.147Z,0.00
2019-01-27T01:11:28.281Z,0.00
2019-01-27T01:12:28.402Z,0.00
2019-01-27T01:13:28.527Z,0.00
2019-01-27T01:14:28.661Z,0.00
2019-01-27T01:15:28.784Z,0.00
2019-01-27T01:16:28.924Z,0.00
2019-01-27T01:17:29.060Z,0.00
2019-01-27T01:18:29.183Z,0.00
2019-01-27T01:19:29.310Z,0.00
2019-01-27T01:20:29.437Z,0.00
2019-01-27T01:21:29.564Z,0.00
2019-01-27T01:22:29.686Z,0.00
2019-01-27T01:23:29.818Z,0.00
2019-01-27T01:24:29.951Z,0.00
2019-01-27T01:25:30.078Z,0.00
2019-01-27T01:26:30.210Z,0.00
2019-01-27T01:27:30.341Z,0.00
2019-01-27T01:28:30.460Z,0.00
2019-01-27T01:29:30.599Z,0.00
2019-01-27T01:30:30.716Z,0.00
2019-01-27T01:31:30.848Z,0.00
2019-01-27T01:32:30.975Z,0.00
2019-01-27T01:33:31.121Z,0.00
2019-01-27T01:34:31.244Z,0.00
2019-01-27T01:35:31.375Z,0.00
2019-01-27T01:36:31.502Z,0.00
2019-01-27T01:37:31.627Z,0.00
2019-01-27T01:38:31.762Z,0.00
2019-01-27T01:39:31.886Z,0.00
2019-01-27T01:40:32.023Z,0.00
2019-01-27T01:41:32.155Z,0.00
2019-01-27T01:42:32.283Z,0.00
2019-01-27T01:43:32.411Z,0.00
2019-01-27T01:44:32.541Z,0.00
2019-01-27T01:45:32.669Z,0.00
2019-01-27T01:46:32.792Z,0.00
2019-01-27T01:47:32.916Z,0.00
2019-01-27T01:48:33.046Z,0.00
2019-01-27T01:49:33.166Z,0.00
2019-01-27T01:50:33.295Z,0.00
2019-01-27T01:51:33.423Z,0.00
2019-01-27T01:52:33.554Z,0.00
2019-01-27T01:53:33.686Z,0.00
2019-01-27T01:54:33.808Z,0.00
2019-01-27T01:55:33.974Z,0.00
2019-01-27T01:56:34.098Z,0.00
2019-01-27T01:57:34.233Z,0.00
2019-01-27T01:58:34.363Z,0.00
2019-01-27T01:59:34.483Z,0.00
2019-01-27T02:00:34.611Z,0.00
2019-01-27T02:01:34.738Z,0.00
2019-01-27T02:02:34.869Z,0.00
2019-01-27T02:03:34.997Z,0.00
2019-01-27T02:04:35.127Z,0.00
2019-01-27T02:05:35.251Z,0.00
2019-01-27T02:06:35.381Z,0.00
2019-01-27T02:07:35.515Z,0.00
2019-01-27T02:08:35.643Z,0.00
2019-01-27T02:09:35.773Z,0.00
2019-01-27T02:10:35.902Z,0.00
2019-01-27T02:11:36.029Z,0.00
2019-01-27T02:12:36.152Z,0.00
2019-01-27T02:13:36.283Z,0.00
2019-01-27T02:14:36.405Z,0.00
2019-01-27T02:15:36.543Z,0.00
2019-01-27T02:16:36.666Z,0.00
2019-01-27T02:17:36.793Z,0.00
2019-01-27T02:18:36.922Z,0.00
2019-01-27T02:19:37.061Z,0.00
2019-01-27T02:20:37.190Z,0.00
2019-01-27T02:21:37.319Z,0.00
2019-01-27T02:22:37.450Z,0.00
2019-01-27T02:23:37.578Z,0.00
2019-01-27T02:24:37.701Z,0.00
2019-01-27T02:25:37.831Z,0.00
2019-01-27T02:26:37.960Z,0.00
2019-01-27T02:27:38.090Z,0.00
2019-01-27T02:28:38.217Z,0.00
2019-01-27T02:29:38.345Z,0.00
2019-01-27T02:30:38.470Z,0.00
2019-01-27T02:31:38.602Z,0.00
2019-01-27T02:32:38.725Z,0.00
2019-01-27T02:33:38.857Z,0.00
2019-01-27T02:34:38.990Z,0.00
2019-01-27T02:35:39.122Z,0.00
2019-01-27T02:36:39.247Z,0.00
2019-01-27T02:37:39.378Z,0.00
2019-01-27T02:38:39.502Z,0.00
2019-01-27T02:39:39.630Z,0.00
2019-01-27T02:40:39.759Z,0.00
2019-01-27T02:41:39.882Z,0.00
2019-01-27T02:42:40.015Z,0.00
2019-01-27T02:43:40.142Z,0.00
2019-01-27T02:44:40.266Z,0.00
2019-01-27T02:45:40.396Z,0.00
2019-01-27T02:46:40.520Z,0.00
2019-01-27T02:47:40.649Z,0.00
2019-01-27T02:48:40.775Z,0.00
2019-01-27T02:49:40.895Z,0.00
2019-01-27T02:50:41.021Z,0.00
2019-01-27T02:51:41.145Z,0.00
2019-01-27T02:52:41.277Z,0.00
2019-01-27T02:53:41.407Z,0.00
2019-01-27T02:54:41.543Z,0.00
2019-01-27T02:55:41.665Z,0.00
2019-01-27T02:56:41.794Z,0.00
2019-01-27T02:57:41.922Z,0.00
2019-01-27T02:58:42.048Z,0.00
2019-01-27T02:59:42.179Z,0.00
2019-01-27T03:00:42.306Z,0.00
2019-01-27T03:01:42.452Z,0.00
2019-01-27T03:02:42.559Z,0.00
2019-01-27T03:03:42.686Z,0.00
2019-01-27T03:04:42.815Z,0.00
2019-01-27T03:05:42.952Z,0.00
2019-01-27T03:06:43.084Z,0.00
2019-01-27T03:07:43.211Z,0.00
2019-01-27T03:08:43.335Z,0.00
2019-01-27T03:09:43.474Z,0.00
2019-01-27T03:10:43.636Z,0.00
2019-01-27T03:11:43.722Z,0.00
2019-01-27T03:12:43.853Z,0.00
2019-01-27T03:13:43.972Z,0.00
2019-01-27T03:14:44.109Z,0.00
2019-01-27T03:15:44.233Z,0.00
2019-01-27T03:16:44.366Z,0.00
2019-01-27T03:17:44.492Z,0.00
2019-01-27T03:18:44.620Z,0.00
2019-01-27T03:19:44.746Z,0.00
2019-01-27T03:20:44.875Z,0.00
2019-01-27T03:21:45.003Z,0.00
2019-01-27T03:22:45.140Z,0.00
2019-01-27T03:23:45.268Z,0.00
2019-01-27T03:24:45.395Z,0.00
2019-01-27T03:25:45.521Z,0.00
2019-01-27T03:26:45.653Z,0.00
2019-01-27T03:27:45.790Z,0.00
2019-01-27T03:28:45.908Z,0.00
2019-01-27T03:29:46.035Z,0.00
2019-01-27T03:30:46.157Z,0.00
2019-01-27T03:31:46.286Z,0.00
2019-01-27T03:32:46.436Z,0.00
2019-01-27T03:33:46.543Z,0.00
2019-01-27T03:34:46.669Z,0.00
2019-01-27T03:35:46.796Z,0.00
2019-01-27T03:36:46.927Z,0.00
2019-01-27T03:37:47.054Z,0.00
2019-01-27T03:38:47.179Z,0.00
2019-01-27T03:39:47.307Z,0.00
2019-01-27T03:40:47.438Z,0.00
2019-01-27T03:41:47.565Z,0.00
2019-01-27T03:42:47.710Z,0.00
2019-01-27T03:43:47.897Z,0.00
2019-01-27T03:44:47.898Z,0.00
2019-01-27T03:45:48.027Z,0.00
2019-01-27T03:46:48.155Z,0.00
2019-01-27T03:47:48.287Z,0.00
2019-01-27T03:48:48.413Z,0.00
2019-01-27T03:49:48.537Z,0.00
2019-01-27T03:50:48.670Z,0.00
2019-01-27T03:51:48.789Z,0.00
2019-01-27T03:52:48.915Z,0.00
2019-01-27T03:53:49.043Z,0.00
2019-01-27T03:54:49.166Z,0.00
2019-01-27T03:55:49.292Z,0.00
2019-01-27T03:56:49.425Z,0.00
2019-01-27T03:57:50.482Z,0.00
2019-01-27T03:58:49.634Z,0.00
2019-01-27T03:59:49.759Z,0.00
2019-01-27T04:00:49.888Z,0.00
2019-01-27T04:01:50.017Z,0.00
2019-01-27T04:02:50.147Z,0.00
2019-01-27T04:03:50.269Z,0.00
2019-01-27T04:04:50.403Z,0.00
2019-01-27T04:05:50.528Z,0.00
2019-01-27T04:06:50.657Z,0.00
2019-01-27T04:07:50.781Z,0.00
2019-01-27T04:08:50.913Z,0.00
2019-01-27T04:09:51.042Z,0.00
2019-01-27T04:10:51.174Z,0.00
2019-01-27T04:11:51.299Z,0.00
2019-01-27T04:12:51.425Z,0.00
2019-01-27T04:13:51.555Z,0.00
2019-01-27T04:14:51.685Z,0.00
2019-01-27T04:15:51.814Z,0.00
2019-01-27T04:16:51.935Z,0.00
2019-01-27T04:17:52.066Z,0.00
2019-01-27T04:18:52.197Z,0.00
2019-01-27T04:19:52.320Z,0.00
2019-01-27T04:20:52.448Z,0.00
2019-01-27T04:21:52.585Z,0.00
2019-01-27T04:22:52.707Z,0.00
2019-01-27T04:23:52.839Z,0.00
2019-01-27T04:24:52.970Z,0.00
2019-01-27T04:25:53.099Z,0.00
2019-01-27T04:26:53.222Z,0.00
2019-01-27T04:27:53.356Z,0.00
2019-01-27T04:28:53.493Z,0.00
2019-01-27T04:29:53.628Z,0.00
2019-01-27T04:30:53.762Z,0.00
2019-01-27T04:31:53.895Z,0.00
2019-01-27T04:32:54.044Z,0.00
2019-01-27T04:33:54.147Z,0.00
2019-01-27T04:34:54.276Z,0.00
2019-01-27T04:35:54.410Z,0.00
2019-01-27T04:36:54.535Z,0.00
2019-01-27T04:37:54.664Z,0.00
2019-01-27T04:38:54.800Z,0.00
2019-01-27T04:39:54.931Z,0.00
2019-01-27T04:40:55.056Z,0.00
2019-01-27T04:41:55.182Z,0.00
2019-01-27T04:42:55.324Z,0.00
2019-01-27T04:43:56.488Z,0.00
2019-01-27T04:44:55.569Z,0.00
2019-01-27T04:45:55.700Z,0.00
2019-01-27T04:46:55.828Z,0.00
2019-01-27T04:47:55.955Z,0.00
2019-01-27T04:48:56.101Z,0.00
2019-01-27T04:49:56.220Z,0.00
2019-01-27T04:50:56.348Z,0.00
2019-01-27T04:51:56.479Z,0.00
2019-01-27T04:52:56.600Z,0.00
2019-01-27T04:53:56.730Z,0.00
2019-01-27T04:54:56.861Z,0.00
2019-01-27T04:55:56.993Z,0.00
2019-01-27T04:56:57.116Z,0.00
2019-01-27T04:57:57.248Z,0.00
2019-01-27T04:58:57.372Z,0.00
2019-01-27T04:59:57.502Z,0.00
2019-01-27T05:00:57.629Z,0.00
2019-01-27T05:01:57.760Z,0.00
2019-01-27T05:02:57.895Z,0.00
2019-01-27T05:03:58.036Z,0.00
2019-01-27T05:04:58.165Z,0.00
2019-01-27T05:05:58.970Z,0.00
2019-01-27T05:06:58.406Z,0.00
2019-01-27T05:07:58.530Z,0.00
2019-01-27T05:08:58.674Z,0.00
2019-01-27T05:09:58.802Z,0.00
2019-01-27T05:10:58.924Z,0.00
2019-01-27T05:11:59.057Z,0.00
2019-01-27T05:12:59.188Z,0.00
2019-01-27T05:13:59.313Z,0.00
2019-01-27T05:14:59.444Z,0.00
2019-01-27T05:15:59.572Z,0.00
2019-01-27T05:16:59.697Z,0.00
2019-01-27T05:17:59.825Z,0.00
2019-01-27T05:18:59.954Z,0.00
2019-01-27T05:20:00.183Z,0.00
2019-01-27T05:21:00.226Z,0.00
2019-01-27T05:22:00.356Z,0.00
2019-01-27T05:23:00.480Z,0.00
2019-01-27T05:24:00.607Z,0.00
2019-01-27T05:25:00.750Z,0.00
2019-01-27T05:26:00.877Z,0.00
2019-01-27T05:27:01.008Z,0.00
2019-01-27T05:28:01.136Z,0.00
2019-01-27T05:29:01.270Z,0.00
2019-01-27T05:30:01.397Z,0.00
2019-01-27T05:31:01.523Z,0.00
2019-01-27T05:32:01.655Z,0.00
2019-01-27T05:33:01.794Z,0.00
2019-01-27T05:34:01.899Z,0.00
2019-01-27T05:35:02.025Z,0.00
2019-01-27T05:36:02.155Z,0.00
2019-01-27T05:37:02.293Z,0.00
2019-01-27T05:38:02.417Z,0.00
2019-01-27T05:39:02.545Z,0.00
2019-01-27T05:40:02.680Z,0.00
2019-01-27T05:41:02.803Z,0.00
2019-01-27T05:42:02.936Z,0.00
2019-01-27T05:43:03.058Z,0.00
2019-01-27T05:44:03.194Z,0.00
2019-01-27T05:45:03.323Z,0.00
2019-01-27T05:46:03.452Z,0.00
2019-01-27T05:47:03.577Z,0.00
2019-01-27T05:48:03.708Z,0.00
2019-01-27T05:49:03.836Z,0.00
2019-01-27T05:50:03.961Z,0.00
2019-01-27T05:51:04.087Z,0.00
2019-01-27T05:52:04.212Z,0.00
2019-01-27T05:53:04.344Z,0.00
2019-01-27T05:54:04.477Z,0.00
2019-01-27T05:55:04.606Z,0.00
2019-01-27T05:56:04.737Z,0.00
2019-01-27T05:57:04.873Z,0.00
2019-01-27T05:58:05.005Z,0.00
2019-01-27T05:59:05.135Z,0.00
2019-01-27T06:00:05.257Z,0.00
2019-01-27T06:01:05.386Z,0.00
2019-01-27T06:02:05.508Z,0.00
2019-01-27T06:03:05.645Z,0.00
2019-01-27T06:04:05.779Z,0.00
2019-01-27T06:05:05.903Z,0.00
2019-01-27T06:06:06.027Z,0.00
2019-01-27T06:07:06.157Z,0.00
2019-01-27T06:08:06.285Z,0.00
2019-01-27T06:09:06.426Z,0.00
2019-01-27T06:10:06.538Z,0.00
2019-01-27T06:11:06.680Z,0.00
2019-01-27T06:12:06.807Z,0.00
2019-01-27T06:13:06.933Z,0.00
2019-01-27T06:14:07.065Z,0.00
2019-01-27T06:15:07.193Z,0.00
2019-01-27T06:16:07.325Z,0.00
2019-01-27T06:17:07.446Z,0.00
2019-01-27T06:19:39.388Z,0.00
2019-01-27T06:20:39.508Z,0.00
2019-01-27T06:21:39.647Z,0.00
2019-01-27T06:22:39.753Z,0.00
2019-01-27T06:23:39.879Z,0.00
2019-01-27T06:24:40.081Z,0.00
2019-01-27T06:25:40.103Z,0.00
2019-01-27T06:26:40.203Z,0.00
2019-01-27T06:27:40.353Z,0.00
2019-01-27T06:28:40.465Z,0.00
2019-01-27T06:29:40.580Z,0.00
2019-01-27T06:30:40.701Z,0.00
2019-01-27T06:31:40.829Z,0.00
2019-01-27T06:32:40.960Z,0.00
2019-01-27T06:33:41.089Z,0.00
2019-01-27T06:34:41.223Z,0.00
2019-01-27T06:35:41.340Z,0.00
2019-01-27T06:36:41.467Z,0.00
2019-01-27T06:37:41.597Z,0.00
2019-01-27T06:38:42.625Z,0.00
2019-01-27T06:39:41.905Z,0.00
2019-01-27T06:40:42.037Z,0.00
2019-01-27T06:41:42.184Z,0.00
2019-01-27T06:42:42.304Z,0.00
2019-01-27T06:43:42.433Z,0.00
2019-01-27T06:44:42.555Z,0.00
2019-01-27T06:45:42.684Z,0.00
2019-01-27T06:46:42.813Z,4.00
2019-01-27T06:47:42.940Z,4.00
2019-01-27T06:48:43.063Z,4.00
2019-01-27T06:49:43.193Z,4.00
2019-01-27T06:50:43.320Z,4.00
2019-01-27T06:51:43.443Z,0.00
2019-01-27T06:52:43.568Z,0.00
2019-01-27T06:53:43.698Z,4.00
2019-01-27T06:54:43.819Z,4.00
2019-01-27T06:55:43.961Z,4.00
2019-01-27T06:56:44.112Z,4.00
2019-01-27T06:57:44.216Z,8.00
2019-01-27T06:58:45.117Z,4.00
2019-01-27T06:59:44.528Z,8.00
2019-01-27T07:00:44.666Z,8.00
2019-01-27T07:01:44.786Z,12.00
2019-01-27T07:02:44.920Z,16.00
2019-01-27T07:03:45.047Z,16.00
2019-01-27T07:04:45.169Z,20.00
2019-01-27T07:05:45.307Z,16.00
2019-01-27T07:06:45.433Z,16.00
2019-01-27T07:07:45.558Z,24.00
2019-01-27T07:08:45.694Z,28.00
2019-01-27T07:09:45.818Z,32.00
2019-01-27T07:10:45.948Z,24.00
2019-01-27T07:11:46.076Z,32.00
2019-01-27T07:12:46.205Z,36.00
2019-01-27T07:13:46.341Z,36.00
2019-01-27T07:14:46.470Z,32.00
2019-01-27T07:15:46.623Z,44.00
2019-01-27T07:16:46.749Z,44.00
2019-01-27T07:17:46.882Z,36.00
2019-01-27T07:18:47.012Z,40.00
2019-01-27T07:19:47.145Z,40.00
2019-01-27T07:20:47.271Z,40.00
2019-01-27T07:21:47.396Z,40.00
2019-01-27T07:22:47.522Z,44.00
2019-01-27T07:23:47.643Z,48.00
2019-01-27T07:24:47.767Z,48.00
2019-01-27T07:25:47.894Z,48.00
2019-01-27T07:26:48.020Z,52.00
2019-01-27T07:27:48.153Z,52.00
2019-01-27T07:28:48.280Z,52.00
2019-01-27T07:29:48.407Z,52.00
2019-01-27T07:30:48.535Z,64.00
2019-01-27T07:31:48.663Z,60.00
2019-01-27T07:32:48.790Z,72.00
2019-01-27T07:33:48.912Z,80.00
2019-01-27T07:34:49.356Z,84.00
2019-01-27T07:35:49.179Z,112.00
2019-01-27T07:36:49.305Z,116.00
2019-01-27T07:37:49.426Z,132.00
2019-01-27T07:38:49.551Z,148.00
2019-01-27T07:39:49.688Z,140.00
2019-01-27T07:40:49.815Z,140.00
2019-01-27T07:41:50.630Z,148.00
2019-01-27T07:44:21.871Z,184.00
2019-01-27T07:45:21.958Z,200.00
2019-01-27T07:46:22.085Z,176.00
2019-01-27T07:47:22.217Z,200.00
2019-01-27T07:48:22.344Z,196.00
2019-01-27T07:49:22.470Z,196.00
2019-01-27T07:50:22.603Z,152.00
2019-01-27T07:51:22.742Z,132.00
2019-01-27T07:52:22.869Z,156.00
2019-01-27T07:53:22.992Z,176.00
2019-01-27T07:54:23.115Z,176.00
2019-01-27T07:55:23.249Z,208.00
2019-01-27T07:56:23.376Z,212.00
2019-01-27T07:57:23.498Z,284.00
2019-01-27T07:58:23.628Z,388.00
2019-01-27T07:59:23.755Z,520.00
2019-01-27T08:00:23.933Z,460.00
2019-01-27T08:01:24.071Z,416.00
2019-01-27T08:02:24.205Z,492.00
2019-01-27T08:03:24.337Z,440.00
2019-01-27T08:04:24.589Z,408.00
2019-01-27T08:05:24.562Z,388.00
2019-01-27T08:06:24.702Z,404.00
2019-01-27T08:07:24.824Z,472.00
2019-01-27T08:08:24.951Z,544.00
2019-01-27T08:09:25.086Z,632.00
2019-01-27T08:10:25.210Z,684.00
2019-01-27T08:11:25.457Z,588.00
2019-01-27T08:12:25.537Z,688.00
2019-01-27T08:13:25.666Z,632.00
2019-01-27T08:14:25.815Z,592.00
2019-01-27T08:15:25.919Z,760.00
2019-01-27T08:16:26.047Z,908.00
2019-01-27T08:17:26.175Z,832.00
2019-01-27T08:18:26.310Z,772.00
2019-01-27T08:19:26.435Z,784.00
2019-01-27T08:20:26.615Z,692.00
2019-01-27T08:21:26.745Z,780.00
2019-01-27T08:22:26.870Z,796.00
2019-01-27T08:23:27.041Z,768.00
2019-01-27T08:24:27.211Z,664.00
2019-01-27T08:25:27.328Z,556.00
2019-01-27T08:26:27.481Z,528.00
2019-01-27T08:27:27.658Z,536.00
2019-01-27T08:28:27.752Z,628.00
2019-01-27T08:29:27.885Z,676.00
2019-01-27T08:30:28.027Z,724.00
2019-01-27T08:31:28.152Z,996.00
2019-01-27T08:32:28.320Z,1012.00
2019-01-27T08:33:28.457Z,924.00
2019-01-27T08:34:28.589Z,1080.00
2019-01-27T08:35:28.713Z,1288.00
2019-01-27T08:36:28.839Z,1024.00
2019-01-27T08:37:28.966Z,1224.00
2019-01-27T08:38:29.107Z,1180.00
2019-01-27T08:39:29.237Z,900.00
2019-01-27T08:40:29.531Z,684.00
2019-01-27T08:41:29.454Z,664.00
2019-01-27T08:42:29.718Z,716.00
2019-01-27T08:45:01.677Z,1232.00
2019-01-27T08:46:01.837Z,1660.00
2019-01-27T08:47:01.961Z,1856.00
2019-01-27T08:48:02.086Z,2840.00
2019-01-27T08:49:02.231Z,3348.00
2019-01-27T08:50:03.281Z,2868.00
2019-01-27T08:51:02.482Z,2220.00
2019-01-27T08:52:02.615Z,1796.00
2019-01-27T08:53:02.754Z,1548.00
2019-01-27T08:54:02.879Z,1544.00
2019-01-27T08:55:03.006Z,1380.00
2019-01-27T08:56:03.157Z,1416.00
2019-01-27T08:57:03.292Z,1536.00
2019-01-27T08:58:03.419Z,1364.00
2019-01-27T08:59:03.575Z,1264.00
2019-01-27T09:00:03.700Z,1232.00
2019-01-27T09:01:04.454Z,1184.00
2019-01-27T09:02:03.948Z,1292.00
2019-01-27T09:03:04.080Z,1228.00
2019-01-27T09:04:04.208Z,1316.00
2019-01-27T09:05:04.943Z,1292.00
2019-01-27T09:06:04.455Z,1296.00
2019-01-27T09:07:04.575Z,1408.00
2019-01-27T09:08:04.719Z,1492.00
2019-01-27T09:09:04.872Z,1312.00
2019-01-27T09:10:05.512Z,1784.00
2019-01-27T09:11:05.126Z,1560.00
2019-01-27T09:12:05.252Z,1748.00
2019-01-27T09:13:11.183Z,1368.00
2019-01-27T09:14:05.554Z,968.00
2019-01-27T09:15:05.685Z,1064.00
2019-01-27T09:16:05.812Z,1144.00
2019-01-27T09:17:05.960Z,1148.00
2019-01-27T09:18:06.083Z,1360.00
2019-01-27T09:19:06.223Z,1432.00
2019-01-27T09:20:06.356Z,1440.00
2019-01-27T09:21:06.524Z,2268.00
2019-01-27T09:22:06.647Z,2876.00
2019-01-27T09:23:06.778Z,2568.00
2019-01-27T09:24:06.928Z,2684.00
2019-01-27T09:25:07.056Z,2708.00
2019-01-27T09:26:07.181Z,2332.00
2019-01-27T09:27:07.310Z,2008.00
2019-01-27T09:28:07.446Z,1700.00
2019-01-27T09:29:07.569Z,2192.00
2019-01-27T09:30:07.697Z,2484.00
2019-01-27T09:31:07.834Z,2564.00
2019-01-27T09:32:07.981Z,2336.00
2019-01-27T09:33:08.101Z,2172.00
2019-01-27T09:34:13.157Z,2268.00
2019-01-27T09:35:08.384Z,1888.00
2019-01-27T09:36:08.535Z,1812.00
2019-01-27T09:37:08.655Z,2232.00
2019-01-27T09:38:08.858Z,2060.00
2019-01-27T09:39:08.861Z,2396.00
2019-01-27T09:40:09.052Z,2456.00
2019-01-27T09:41:09.247Z,2276.00
2019-01-27T09:42:09.283Z,2240.00
2019-01-27T09:43:09.412Z,3336.00
2019-01-27T09:44:09.539Z,2464.00
2019-01-27T09:45:09.693Z,1476.00
2019-01-27T09:46:11.498Z,1360.00
2019-01-27T09:47:09.952Z,1448.00
2019-01-27T09:48:10.133Z,1644.00
2019-01-27T09:49:10.237Z,1952.00
2019-01-27T09:50:10.369Z,1636.00
2019-01-27T09:51:10.555Z,1612.00
2019-01-27T09:52:10.771Z,1412.00
2019-01-27T09:53:10.782Z,1424.00
2019-01-27T09:54:10.899Z,1508.00
2019-01-27T09:55:11.034Z,1600.00
2019-01-27T09:56:11.206Z,1488.00
2019-01-27T09:57:12.129Z,1824.00
2019-01-27T09:58:11.443Z,1920.00
2019-01-27T09:59:11.563Z,2048.00
2019-01-27T10:00:11.717Z,2260.00
2019-01-27T10:01:11.837Z,2160.00
2019-01-27T10:02:11.967Z,2032.00
2019-01-27T10:03:12.117Z,1872.00
2019-01-27T10:04:12.840Z,1852.00
2019-01-27T10:05:12.371Z,1652.00
2019-01-27T10:06:12.525Z,2088.00
2019-01-27T10:07:12.792Z,3340.00
2019-01-27T10:08:12.799Z,3096.00
2019-01-27T10:09:12.921Z,2740.00
2019-01-27T10:10:13.060Z,2268.00
2019-01-27T10:11:13.181Z,1708.00
2019-01-27T10:12:13.320Z,1844.00
2019-01-27T10:13:13.446Z,1720.00
2019-01-27T10:14:13.614Z,1720.00
2019-01-27T10:15:13.721Z,2072.00
2019-01-27T10:16:13.834Z,1920.00
2019-01-27T10:17:13.971Z,1880.00
2019-01-27T10:18:14.135Z,1572.00
2019-01-27T10:19:14.239Z,1724.00
2019-01-27T10:20:14.374Z,2168.00
2019-01-27T10:21:14.513Z,2152.00
2019-01-27T10:22:14.642Z,2364.00
2019-01-27T10:23:14.770Z,2536.00
2019-01-27T10:24:14.916Z,1612.00
2019-01-27T10:25:16.104Z,1028.00
2019-01-27T10:26:15.154Z,968.00
2019-01-27T10:27:15.286Z,1184.00
2019-01-27T10:28:15.423Z,1436.00
2019-01-27T10:29:15.549Z,1624.00
2019-01-27T10:30:15.674Z,1896.00
2019-01-27T10:31:15.804Z,2080.00
2019-01-27T10:32:15.938Z,2600.00
2019-01-27T10:33:16.065Z,3104.00
2019-01-27T10:34:16.193Z,4272.00
2019-01-27T10:35:16.322Z,3916.00
2019-01-27T10:36:16.454Z,5184.00
2019-01-27T10:37:16.584Z,5416.00
2019-01-27T10:38:16.715Z,4284.00
2019-01-27T10:39:16.837Z,3596.00
2019-01-27T10:40:17.202Z,4220.00
2019-01-27T10:41:17.156Z,3380.00
2019-01-27T10:42:17.287Z,2952.00
2019-01-27T10:43:17.405Z,2892.00
2019-01-27T10:44:17.543Z,3404.00
2019-01-27T10:45:17.688Z,2976.00
2019-01-27T10:46:17.817Z,3220.00
2019-01-27T10:47:17.945Z,3088.00
2019-01-27T10:48:18.441Z,2920.00
2019-01-27T10:49:18.210Z,2548.00
2019-01-27T10:50:18.333Z,2652.00
2019-01-27T10:51:18.497Z,3056.00
2019-01-27T10:52:18.629Z,3472.00
2019-01-27T10:53:20.913Z,4420.00
2019-01-27T10:54:18.900Z,3732.00
2019-01-27T10:55:19.031Z,3152.00
2019-01-27T10:56:19.165Z,3828.00
2019-01-27T10:57:19.289Z,2788.00
2019-01-27T10:58:19.431Z,2028.00
2019-01-27T10:59:19.556Z,2068.00
2019-01-27T11:00:19.695Z,2152.00
2019-01-27T11:01:19.820Z,1948.00
2019-01-27T11:02:19.954Z,2232.00
2019-01-27T11:03:20.075Z,2400.00
2019-01-27T11:04:20.208Z,2776.00
2019-01-27T11:05:20.342Z,2872.00
2019-01-27T11:06:20.467Z,2820.00
2019-01-27T11:07:20.602Z,2372.00
2019-01-27T11:08:20.741Z,2184.00
2019-01-27T11:09:20.874Z,1828.00
2019-01-27T11:10:21.016Z,1700.00
2019-01-27T11:11:21.146Z,1604.00
2019-01-27T11:12:21.275Z,1684.00
2019-01-27T11:13:21.405Z,1660.00
2019-01-27T11:14:21.534Z,1500.00
2019-01-27T11:15:21.696Z,1524.00
2019-01-27T11:16:21.827Z,1768.00
2019-01-27T11:17:22.020Z,2008.00
2019-01-27T11:18:22.069Z,2040.00
2019-01-27T11:19:22.197Z,1976.00
2019-01-27T11:20:22.330Z,1576.00
2019-01-27T11:21:22.462Z,1436.00
2019-01-27T11:22:22.589Z,1412.00
2019-01-27T11:23:22.732Z,1416.00
2019-01-27T11:24:22.852Z,1360.00
2019-01-27T11:25:22.985Z,1396.00
2019-01-27T11:26:23.109Z,1516.00
2019-01-27T11:27:23.245Z,1644.00
2019-01-27T11:28:23.377Z,1888.00
2019-01-27T11:29:23.505Z,2164.00
2019-01-27T11:30:23.633Z,2396.00
2019-01-27T11:31:23.784Z,2816.00
2019-01-27T11:32:23.918Z,2556.00
2019-01-27T11:33:24.056Z,3072.00
2019-01-27T11:34:24.185Z,2892.00
2019-01-27T11:35:24.311Z,2308.00
2019-01-27T11:36:24.458Z,2716.00
2019-01-27T11:37:24.568Z,3332.00
2019-01-27T11:38:24.699Z,3860.00
2019-01-27T11:39:24.825Z,2900.00
2019-01-27T11:40:24.960Z,2164.00
2019-01-27T11:41:25.094Z,1844.00
2019-01-27T11:42:25.239Z,1636.00
2019-01-27T11:43:25.366Z,1768.00
2019-01-27T11:44:25.509Z,1976.00
2019-01-27T11:45:25.616Z,2188.00
2019-01-27T11:46:25.729Z,2132.00
2019-01-27T11:47:25.879Z,2496.00
2019-01-27T11:48:25.996Z,3916.00
2019-01-27T11:49:26.128Z,6984.00
2019-01-27T11:50:26.274Z,4196.00
2019-01-27T11:51:26.406Z,4136.00
2019-01-27T11:52:26.538Z,3572.00
2019-01-27T11:53:27.208Z,2320.00
2019-01-27T11:55:58.533Z,1500.00
2019-01-27T11:56:58.645Z,1236.00
2019-01-27T11:57:58.790Z,1280.00
2019-01-27T11:58:58.918Z,1200.00
2019-01-27T11:59:59.054Z,1056.00
2019-01-27T12:00:59.173Z,1180.00
2019-01-27T12:01:59.335Z,1412.00
2019-01-27T12:02:59.483Z,1868.00
2019-01-27T12:03:59.604Z,2700.00
2019-01-27T12:04:59.737Z,5276.00
2019-01-27T12:05:59.866Z,16180.00
2019-01-27T12:06:59.994Z,12432.00
2019-01-27T12:08:00.122Z,8184.00
2019-01-27T12:09:00.285Z,5940.00
2019-01-27T12:10:00.388Z,5232.00
2019-01-27T12:11:00.515Z,4960.00
2019-01-27T12:12:00.653Z,4652.00
2019-01-27T12:13:00.779Z,4640.00
2019-01-27T12:14:00.922Z,4028.00
2019-01-27T12:15:01.046Z,3900.00
2019-01-27T12:16:01.182Z,3980.00
2019-01-27T12:17:01.316Z,4680.00
2019-01-27T12:18:01.446Z,5608.00
2019-01-27T12:19:01.586Z,6676.00
2019-01-27T12:20:01.719Z,7484.00
2019-01-27T12:21:01.847Z,9604.00
2019-01-27T12:22:01.979Z,16768.00
2019-01-27T12:23:02.111Z,13212.00
2019-01-27T12:24:02.246Z,15812.00
2019-01-27T12:25:02.376Z,16640.00
2019-01-27T12:26:02.503Z,13036.00
2019-01-27T12:27:02.631Z,12288.00
2019-01-27T12:28:02.765Z,11300.00
2019-01-27T12:29:02.893Z,10292.00
2019-01-27T12:30:03.017Z,9720.00
2019-01-27T12:31:03.162Z,8824.00
2019-01-27T12:32:03.300Z,8032.00
2019-01-27T12:33:03.428Z,7176.00
2019-01-27T12:34:03.556Z,5920.00
2019-01-27T12:35:03.705Z,5260.00
2019-01-27T12:36:03.837Z,4896.00
2019-01-27T12:37:03.970Z,4456.00
2019-01-27T12:38:04.097Z,4040.00
2019-01-27T12:39:04.229Z,3716.00
2019-01-27T12:40:04.370Z,3440.00
2019-01-27T12:41:04.516Z,3268.00
2019-01-27T12:42:04.639Z,3152.00
2019-01-27T12:43:04.782Z,3056.00
2019-01-27T12:44:04.900Z,3108.00
2019-01-27T12:45:05.044Z,3272.00
2019-01-27T12:46:05.174Z,3476.00
2019-01-27T12:47:05.305Z,3716.00
2019-01-27T12:48:05.436Z,3780.00
2019-01-27T12:49:05.588Z,3808.00
2019-01-27T12:50:05.728Z,3716.00
2019-01-27T12:51:05.858Z,3572.00
2019-01-27T12:52:05.994Z,3468.00
2019-01-27T12:53:06.156Z,3396.00
2019-01-27T12:54:06.282Z,3264.00
2019-01-27T12:55:06.413Z,3044.00
2019-01-27T12:56:06.542Z,2740.00
2019-01-27T12:57:06.735Z,2592.00